createdAt,value
2018-09-19T00:00:45.257Z,0.00
2018-09-19T00:01:45.234Z,0.00
2018-09-19T00:02:45.210Z,0.00
2018-09-19T00:03:45.189Z,0.00
2018-09-19T00:04:45.166Z,0.00
2018-09-19T00:05:45.148Z,0.00
2018-09-19T00:06:45.124Z,0.00
2018-09-19T00:07:45.103Z,0.00
2018-09-19T00:08:45.085Z,0.00
2018-09-19T00:09:45.062Z,0.00
2018-09-19T00:10:45.037Z,0.00
2018-09-19T00:11:45.015Z,0.00
2018-09-19T00:12:44.994Z,0.00
2018-09-19T00:13:44.975Z,0.00
2018-09-19T00:14:44.954Z,0.00
2018-09-19T00:15:44.929Z,0.00
2018-09-19T00:16:44.908Z,0.00
2018-09-19T00:17:44.885Z,0.00
2018-09-19T00:18:44.864Z,0.00
2018-09-19T00:19:44.844Z,0.00
2018-09-19T00:20:44.822Z,0.00
2018-09-19T00:21:44.800Z,0.00
2018-09-19T00:22:44.776Z,0.00
2018-09-19T00:23:44.755Z,0.00
2018-09-19T00:24:44.812Z,0.00
2018-09-19T00:25:44.711Z,0.00
2018-09-19T00:26:44.690Z,0.00
2018-09-19T00:27:44.669Z,0.00
2018-09-19T00:28:44.646Z,0.00
2018-09-19T00:29:44.624Z,0.00
2018-09-19T00:30:44.604Z,0.00
2018-09-19T00:31:44.581Z,0.00
2018-09-19T00:32:44.559Z,0.00
2018-09-19T00:33:44.538Z,0.00
2018-09-19T00:34:44.515Z,0.00
2018-09-19T00:35:44.494Z,0.00
2018-09-19T00:36:44.475Z,0.00
2018-09-19T00:37:44.448Z,0.00
2018-09-19T00:38:44.427Z,0.00
2018-09-19T00:39:44.405Z,0.00
2018-09-19T00:40:44.384Z,0.00
2018-09-19T00:41:44.360Z,0.00
2018-09-19T00:42:44.343Z,0.00
2018-09-19T00:43:44.318Z,0.00
2018-09-19T00:44:44.295Z,0.00
2018-09-19T00:45:44.271Z,0.00
2018-09-19T00:46:44.250Z,0.00
2018-09-19T00:47:44.229Z,0.00
2018-09-19T00:48:44.214Z,0.00
2018-09-19T00:49:44.184Z,0.00
2018-09-19T00:50:44.162Z,0.00
2018-09-19T00:51:44.143Z,0.00
2018-09-19T00:52:44.122Z,0.00
2018-09-19T00:53:44.095Z,0.00
2018-09-19T00:54:44.074Z,0.00
2018-09-19T00:55:44.065Z,0.00
2018-09-19T00:56:44.038Z,0.00
2018-09-19T00:57:44.008Z,0.00
2018-09-19T00:58:43.997Z,0.00
2018-09-19T00:59:43.965Z,0.00
2018-09-19T01:00:43.940Z,0.00
2018-09-19T01:01:43.921Z,0.00
2018-09-19T01:02:43.896Z,0.00
2018-09-19T01:03:43.874Z,0.00
2018-09-19T01:04:43.851Z,0.00
2018-09-19T01:05:43.829Z,0.00
2018-09-19T01:06:43.805Z,0.00
2018-09-19T01:07:43.790Z,0.00
2018-09-19T01:08:43.769Z,0.00
2018-09-19T01:09:43.744Z,0.00
2018-09-19T01:10:43.718Z,0.00
2018-09-19T01:11:43.696Z,0.00
2018-09-19T01:12:43.672Z,0.00
2018-09-19T01:13:43.652Z,0.00
2018-09-19T01:14:43.627Z,0.00
2018-09-19T01:15:43.607Z,0.00
2018-09-19T01:16:43.586Z,0.00
2018-09-19T01:17:43.561Z,0.00
2018-09-19T01:18:43.538Z,0.00
2018-09-19T01:19:43.517Z,0.00
2018-09-19T01:20:43.494Z,0.00
2018-09-19T01:21:43.478Z,0.00
2018-09-19T01:22:43.460Z,0.00
2018-09-19T01:23:43.430Z,0.00
2018-09-19T01:24:43.447Z,0.00
2018-09-19T01:25:43.383Z,0.00
2018-09-19T01:26:43.361Z,0.00
2018-09-19T01:27:43.344Z,0.00
2018-09-19T01:28:43.314Z,0.00
2018-09-19T01:29:43.294Z,0.00
2018-09-19T01:30:43.271Z,0.00
2018-09-19T01:31:43.249Z,0.00
2018-09-19T01:32:43.226Z,0.00
2018-09-19T01:33:43.204Z,0.00
2018-09-19T01:34:43.180Z,0.00
2018-09-19T01:35:43.159Z,0.00
2018-09-19T01:36:43.136Z,0.00
2018-09-19T01:37:43.115Z,0.00
2018-09-19T01:38:43.091Z,0.00
2018-09-19T01:39:43.068Z,0.00
2018-09-19T01:40:43.045Z,0.00
2018-09-19T01:41:43.024Z,0.00
2018-09-19T01:42:43.002Z,0.00
2018-09-19T01:43:42.978Z,0.00
2018-09-19T01:44:42.957Z,0.00
2018-09-19T01:45:42.935Z,0.00
2018-09-19T01:46:42.910Z,0.00
2018-09-19T01:47:42.888Z,0.00
2018-09-19T01:48:42.863Z,0.00
2018-09-19T01:49:42.843Z,0.00
2018-09-19T01:50:42.831Z,0.00
2018-09-19T01:51:42.803Z,0.00
2018-09-19T01:52:42.777Z,0.00
2018-09-19T01:53:42.758Z,0.00
2018-09-19T01:54:42.728Z,0.00
2018-09-19T01:55:42.706Z,0.00
2018-09-19T01:56:42.685Z,0.00
2018-09-19T01:57:42.660Z,0.00
2018-09-19T01:58:42.642Z,0.00
2018-09-19T01:59:42.618Z,0.00
2018-09-19T02:00:42.593Z,0.00
2018-09-19T02:01:42.574Z,0.00
2018-09-19T02:02:42.601Z,0.00
2018-09-19T02:03:42.526Z,0.00
2018-09-19T02:04:42.502Z,0.00
2018-09-19T02:05:42.479Z,0.00
2018-09-19T02:06:42.461Z,0.00
2018-09-19T02:07:42.434Z,0.00
2018-09-19T02:08:42.410Z,0.00
2018-09-19T02:09:42.387Z,0.00
2018-09-19T02:10:42.368Z,0.00
2018-09-19T02:11:42.343Z,0.00
2018-09-19T02:12:42.318Z,0.00
2018-09-19T02:13:42.297Z,0.00
2018-09-19T02:14:42.289Z,0.00
2018-09-19T02:15:42.256Z,0.00
2018-09-19T02:16:42.227Z,0.00
2018-09-19T02:17:42.214Z,0.00
2018-09-19T02:18:42.183Z,0.00
2018-09-19T02:19:42.159Z,0.00
2018-09-19T02:20:42.137Z,0.00
2018-09-19T02:21:42.116Z,0.00
2018-09-19T02:22:42.093Z,0.00
2018-09-19T02:23:42.071Z,0.00
2018-09-19T02:24:42.045Z,0.00
2018-09-19T02:25:42.022Z,0.00
2018-09-19T02:26:41.998Z,0.00
2018-09-19T02:27:41.977Z,0.00
2018-09-19T02:28:42.097Z,0.00
2018-09-19T02:29:41.930Z,0.00
2018-09-19T02:30:41.912Z,0.00
2018-09-19T02:31:41.887Z,0.00
2018-09-19T02:32:41.860Z,0.00
2018-09-19T02:33:41.837Z,0.00
2018-09-19T02:34:41.876Z,0.00
2018-09-19T02:35:41.793Z,0.00
2018-09-19T02:36:41.769Z,0.00
2018-09-19T02:37:41.747Z,0.00
2018-09-19T02:38:41.722Z,0.00
2018-09-19T02:39:41.701Z,0.00
2018-09-19T02:40:41.675Z,0.00
2018-09-19T02:41:41.655Z,0.00
2018-09-19T02:42:41.630Z,0.00
2018-09-19T02:43:41.608Z,0.00
2018-09-19T02:44:41.622Z,0.00
2018-09-19T02:45:41.560Z,0.00
2018-09-19T02:46:41.536Z,0.00
2018-09-19T02:47:41.516Z,0.00
2018-09-19T02:48:41.491Z,0.00
2018-09-19T02:49:41.468Z,0.00
2018-09-19T02:50:41.444Z,0.00
2018-09-19T02:51:41.424Z,0.00
2018-09-19T02:52:41.397Z,0.00
2018-09-19T02:53:41.374Z,0.00
2018-09-19T02:54:41.350Z,0.00
2018-09-19T02:55:41.328Z,0.00
2018-09-19T02:56:41.303Z,0.00
2018-09-19T02:57:41.282Z,0.00
2018-09-19T02:58:41.257Z,0.00
2018-09-19T02:59:41.234Z,0.00
2018-09-19T03:00:41.213Z,0.00
2018-09-19T03:01:41.187Z,0.00
2018-09-19T03:02:41.164Z,0.00
2018-09-19T03:03:41.140Z,0.00
2018-09-19T03:05:41.093Z,0.00
2018-09-19T03:06:41.069Z,0.00
2018-09-19T03:07:41.051Z,0.00
2018-09-19T03:08:41.029Z,0.00
2018-09-19T03:09:40.999Z,0.00
2018-09-19T03:10:40.980Z,0.00
2018-09-19T03:11:40.954Z,0.00
2018-09-19T03:12:40.927Z,0.00
2018-09-19T03:13:40.905Z,0.00
2018-09-19T03:14:40.881Z,0.00
2018-09-19T03:15:40.860Z,0.00
2018-09-19T03:16:40.841Z,0.00
2018-09-19T03:17:40.937Z,0.00
2018-09-19T03:18:40.790Z,0.00
2018-09-19T03:19:40.765Z,0.00
2018-09-19T03:20:40.742Z,0.00
2018-09-19T03:21:40.718Z,0.00
2018-09-19T03:22:40.693Z,0.00
2018-09-19T03:23:40.669Z,0.00
2018-09-19T03:24:40.650Z,0.00
2018-09-19T03:25:40.621Z,0.00
2018-09-19T03:26:40.597Z,0.00
2018-09-19T03:27:40.575Z,0.00
2018-09-19T03:28:40.551Z,0.00
2018-09-19T03:29:40.526Z,0.00
2018-09-19T03:30:40.504Z,0.00
2018-09-19T03:31:40.481Z,0.00
2018-09-19T03:32:40.456Z,0.00
2018-09-19T03:33:40.433Z,0.00
2018-09-19T03:34:40.407Z,0.00
2018-09-19T03:35:40.383Z,0.00
2018-09-19T03:36:40.360Z,0.00
2018-09-19T03:37:40.335Z,0.00
2018-09-19T03:38:40.312Z,0.00
2018-09-19T03:39:40.291Z,0.00
2018-09-19T03:40:40.264Z,0.00
2018-09-19T03:41:40.241Z,0.00
2018-09-19T03:42:40.221Z,0.00
2018-09-19T03:43:40.199Z,0.00
2018-09-19T03:44:40.168Z,0.00
2018-09-19T03:45:40.146Z,0.00
2018-09-19T03:46:40.123Z,0.00
2018-09-19T03:47:40.100Z,0.00
2018-09-19T03:48:40.078Z,0.00
2018-09-19T03:49:40.052Z,0.00
2018-09-19T03:50:40.028Z,0.00
2018-09-19T03:51:40.003Z,0.00
2018-09-19T03:52:40.036Z,0.00
2018-09-19T03:53:39.952Z,0.00
2018-09-19T03:54:39.933Z,0.00
2018-09-19T03:55:39.947Z,0.00
2018-09-19T03:56:39.883Z,0.00
2018-09-19T03:57:39.858Z,0.00
2018-09-19T03:58:39.836Z,0.00
2018-09-19T03:59:39.809Z,0.00
2018-09-19T04:00:39.785Z,0.00
2018-09-19T04:01:39.765Z,0.00
2018-09-19T04:02:39.737Z,0.00
2018-09-19T04:03:39.714Z,0.00
2018-09-19T04:04:39.688Z,0.00
2018-09-19T04:05:39.665Z,0.00
2018-09-19T04:06:39.643Z,0.00
2018-09-19T04:07:39.617Z,0.00
2018-09-19T04:08:39.595Z,0.00
2018-09-19T04:09:39.569Z,0.00
2018-09-19T04:10:39.544Z,0.00
2018-09-19T04:11:39.533Z,0.00
2018-09-19T04:12:39.504Z,0.00
2018-09-19T04:13:39.471Z,0.00
2018-09-19T04:14:39.455Z,0.00
2018-09-19T04:15:39.424Z,4.00
2018-09-19T04:16:39.444Z,0.00
2018-09-19T04:17:39.451Z,0.00
2018-09-19T04:18:39.353Z,4.00
2018-09-19T04:19:39.327Z,4.00
2018-09-19T04:20:39.303Z,0.00
2018-09-19T04:21:39.277Z,4.00
2018-09-19T04:22:39.254Z,4.00
2018-09-19T04:23:39.234Z,8.00
2018-09-19T04:24:39.208Z,8.00
2018-09-19T04:25:39.180Z,8.00
2018-09-19T04:26:39.159Z,8.00
2018-09-19T04:27:39.132Z,8.00
2018-09-19T04:28:39.158Z,12.00
2018-09-19T04:29:39.090Z,16.00
2018-09-19T04:30:39.064Z,16.00
2018-09-19T04:31:39.036Z,20.00
2018-09-19T04:32:39.009Z,28.00
2018-09-19T04:33:38.987Z,32.00
2018-09-19T04:34:38.963Z,36.00
2018-09-19T04:35:38.938Z,44.00
2018-09-19T04:36:38.912Z,52.00
2018-09-19T04:37:38.890Z,64.00
2018-09-19T04:38:38.866Z,76.00
2018-09-19T04:39:38.842Z,84.00
2018-09-19T04:40:38.819Z,100.00
2018-09-19T04:41:38.794Z,116.00
2018-09-19T04:42:38.767Z,132.00
2018-09-19T04:43:38.744Z,152.00
2018-09-19T04:44:38.720Z,172.00
2018-09-19T04:45:38.697Z,192.00
2018-09-19T04:46:38.681Z,216.00
2018-09-19T04:47:38.647Z,240.00
2018-09-19T04:48:38.627Z,264.00
2018-09-19T04:49:38.601Z,296.00
2018-09-19T04:50:38.575Z,328.00
2018-09-19T04:51:38.664Z,356.00
2018-09-19T04:52:38.532Z,388.00
2018-09-19T04:53:38.503Z,428.00
2018-09-19T04:54:38.477Z,464.00
2018-09-19T04:55:38.454Z,508.00
2018-09-19T04:56:38.433Z,548.00
2018-09-19T04:57:38.404Z,592.00
2018-09-19T04:58:38.381Z,636.00
2018-09-19T04:59:38.361Z,688.00
2018-09-19T05:00:38.332Z,736.00
2018-09-19T05:01:38.308Z,788.00
2018-09-19T05:02:38.285Z,844.00
2018-09-19T05:03:38.263Z,900.00
2018-09-19T05:04:38.235Z,952.00
2018-09-19T05:05:38.231Z,1012.00
2018-09-19T05:06:38.191Z,1068.00
2018-09-19T05:07:38.165Z,1124.00
2018-09-19T05:08:38.138Z,1180.00
2018-09-19T05:09:38.364Z,1220.00
2018-09-19T05:10:38.090Z,1248.00
2018-09-19T05:11:38.067Z,1272.00
2018-09-19T05:12:38.041Z,1300.00
2018-09-19T05:13:38.017Z,1332.00
2018-09-19T05:14:37.993Z,1368.00
2018-09-19T05:15:37.969Z,1408.00
2018-09-19T05:16:37.949Z,1452.00
2018-09-19T05:17:37.924Z,1504.00
2018-09-19T05:18:37.895Z,1556.00
2018-09-19T05:19:37.871Z,1612.00
2018-09-19T05:20:37.846Z,1664.00
2018-09-19T05:21:37.822Z,1700.00
2018-09-19T05:22:37.798Z,1756.00
2018-09-19T05:23:37.775Z,1824.00
2018-09-19T05:24:37.754Z,1872.00
2018-09-19T05:25:37.725Z,1940.00
2018-09-19T05:26:37.706Z,1992.00
2018-09-19T05:27:37.680Z,2004.00
2018-09-19T05:28:37.654Z,2004.00
2018-09-19T05:29:37.655Z,2060.00
2018-09-19T05:30:37.606Z,2180.00
2018-09-19T05:31:37.602Z,2236.00
2018-09-19T05:32:37.559Z,2260.00
2018-09-19T05:33:37.534Z,2280.00
2018-09-19T05:34:37.510Z,2340.00
2018-09-19T05:35:37.486Z,2436.00
2018-09-19T05:36:37.461Z,2520.00
2018-09-19T05:37:37.441Z,2564.00
2018-09-19T05:38:37.414Z,2636.00
2018-09-19T05:39:37.390Z,2716.00
2018-09-19T05:40:37.369Z,2892.00
2018-09-19T05:41:37.343Z,3060.00
2018-09-19T05:42:37.323Z,3248.00
2018-09-19T05:43:37.293Z,3168.00
2018-09-19T05:44:37.269Z,3256.00
2018-09-19T05:45:37.245Z,3380.00
2018-09-19T05:46:37.345Z,3488.00
2018-09-19T05:47:37.199Z,3588.00
2018-09-19T05:48:37.174Z,3696.00
2018-09-19T05:49:37.149Z,3796.00
2018-09-19T05:50:37.128Z,3908.00
2018-09-19T05:51:37.104Z,4012.00
2018-09-19T05:52:37.077Z,4204.00
2018-09-19T05:53:37.053Z,4356.00
2018-09-19T05:54:37.100Z,4424.00
2018-09-19T05:55:37.009Z,4588.00
2018-09-19T05:56:36.982Z,4844.00
2018-09-19T05:57:36.961Z,5048.00
2018-09-19T05:58:36.936Z,5404.00
2018-09-19T05:59:36.911Z,5728.00
2018-09-19T06:00:36.887Z,6608.00
2018-09-19T06:01:36.864Z,7152.00
2018-09-19T06:02:36.843Z,6796.00
2018-09-19T06:03:36.821Z,6388.00
2018-09-19T06:04:36.794Z,6904.00
2018-09-19T06:05:36.769Z,8332.00
2018-09-19T06:06:36.750Z,9548.00
2018-09-19T06:07:36.723Z,10104.00
2018-09-19T06:08:36.758Z,10780.00
2018-09-19T06:09:36.676Z,10932.00
2018-09-19T06:10:36.655Z,11360.00
2018-09-19T06:11:36.631Z,11652.00
2018-09-19T06:12:36.609Z,12224.00
2018-09-19T06:13:36.588Z,12400.00
2018-09-19T06:14:36.580Z,12476.00
2018-09-19T06:15:36.619Z,12436.00
2018-09-19T06:16:36.523Z,12608.00
2018-09-19T06:17:36.500Z,13092.00
2018-09-19T06:18:36.479Z,13440.00
2018-09-19T06:19:36.459Z,13684.00
2018-09-19T06:20:36.483Z,13716.00
2018-09-19T06:21:36.417Z,13952.00
2018-09-19T06:22:36.397Z,14432.00
2018-09-19T06:23:36.377Z,14512.00
2018-09-19T06:24:36.358Z,14824.00
2018-09-19T06:25:36.337Z,15604.00
2018-09-19T06:26:36.331Z,15808.00
2018-09-19T06:27:36.300Z,15100.00
2018-09-19T06:28:36.279Z,14768.00
2018-09-19T06:29:36.261Z,15808.00
2018-09-19T06:30:36.243Z,17728.00
2018-09-19T06:31:36.292Z,18272.00
2018-09-19T06:32:36.213Z,17280.00
2018-09-19T06:33:36.248Z,17120.00
2018-09-19T06:34:36.172Z,17792.00
2018-09-19T06:35:36.155Z,18560.00
2018-09-19T06:36:36.133Z,18848.00
2018-09-19T06:37:36.116Z,18592.00
2018-09-19T06:38:36.099Z,18912.00
2018-09-19T06:39:36.082Z,19936.00
2018-09-19T06:40:36.232Z,20928.00
2018-09-19T06:41:36.048Z,21504.00
2018-09-19T06:42:36.062Z,21536.00
2018-09-19T06:43:36.016Z,22240.00
2018-09-19T06:44:35.999Z,23264.00
2018-09-19T06:45:36.055Z,23168.00
2018-09-19T06:46:35.964Z,22336.00
2018-09-19T06:47:36.106Z,21984.00
2018-09-19T06:48:35.930Z,22592.00
2018-09-19T06:49:35.915Z,23136.00
2018-09-19T06:50:35.907Z,23936.00
2018-09-19T06:51:35.884Z,24448.00
2018-09-19T06:52:35.957Z,23328.00
2018-09-19T06:53:35.855Z,22752.00
2018-09-19T06:54:35.835Z,24096.00
2018-09-19T06:55:35.819Z,25824.00
2018-09-19T06:56:35.810Z,26944.00
2018-09-19T06:57:35.788Z,27552.00
2018-09-19T06:58:35.771Z,27168.00
2018-09-19T06:59:35.766Z,25536.00
2018-09-19T07:00:35.743Z,24544.00
2018-09-19T07:01:35.730Z,26560.00
2018-09-19T07:02:35.712Z,28704.00
2018-09-19T07:03:35.696Z,28352.00
2018-09-19T07:04:35.680Z,27520.00
2018-09-19T07:05:35.684Z,26720.00
2018-09-19T07:06:35.652Z,27072.00
2018-09-19T07:07:35.636Z,27680.00
2018-09-19T07:08:35.623Z,27744.00
2018-09-19T07:09:35.608Z,27744.00
2018-09-19T07:10:35.655Z,28288.00
2018-09-19T07:11:35.580Z,28832.00
2018-09-19T07:12:35.567Z,29280.00
2018-09-19T07:13:35.547Z,27424.00
2018-09-19T07:14:35.541Z,26624.00
2018-09-19T07:15:35.561Z,27136.00
2018-09-19T07:16:35.505Z,27200.00
2018-09-19T07:17:35.488Z,27424.00
2018-09-19T07:18:35.478Z,27680.00
2018-09-19T07:19:35.464Z,28480.00
2018-09-19T07:20:35.445Z,27456.00
2018-09-19T07:21:35.430Z,25632.00
2018-09-19T07:22:35.432Z,23712.00
2018-09-19T07:23:35.424Z,22656.00
2018-09-19T07:24:35.387Z,24544.00
2018-09-19T07:25:35.374Z,28000.00
2018-09-19T07:26:35.358Z,31104.00
2018-09-19T07:27:35.344Z,32384.00
2018-09-19T07:28:35.337Z,34432.00
2018-09-19T07:29:35.316Z,36736.00
2018-09-19T07:30:35.306Z,36992.00
2018-09-19T07:31:35.287Z,35040.00
2018-09-19T07:32:35.273Z,32352.00
2018-09-19T07:33:35.261Z,31968.00
2018-09-19T07:34:35.246Z,32352.00
2018-09-19T07:35:35.233Z,33056.00
2018-09-19T07:36:35.218Z,34400.00
2018-09-19T07:37:35.206Z,35200.00
2018-09-19T07:38:35.190Z,36704.00
2018-09-19T07:39:35.178Z,36576.00
2018-09-19T07:40:35.162Z,33312.00
2018-09-19T07:41:35.148Z,34368.00
2018-09-19T07:42:35.135Z,35136.00
2018-09-19T07:43:35.126Z,36352.00
2018-09-19T07:44:35.106Z,32448.00
2018-09-19T07:45:35.093Z,30656.00
2018-09-19T07:46:35.134Z,31424.00
2018-09-19T07:47:35.071Z,34304.00
2018-09-19T07:48:35.050Z,37408.00
2018-09-19T07:49:35.040Z,39616.00
2018-09-19T07:50:35.024Z,39200.00
2018-09-19T07:51:35.009Z,36352.00
2018-09-19T07:52:34.993Z,32896.00
2018-09-19T07:53:34.981Z,30752.00
2018-09-19T07:54:35.035Z,30432.00
2018-09-19T07:55:34.954Z,32608.00
2018-09-19T07:56:34.940Z,33920.00
2018-09-19T07:57:34.927Z,34368.00
2018-09-19T07:58:34.911Z,34176.00
2018-09-19T07:59:34.898Z,33824.00
2018-09-19T08:00:34.981Z,33888.00
2018-09-19T08:01:34.867Z,35296.00
2018-09-19T08:02:34.853Z,36352.00
2018-09-19T08:03:34.841Z,36832.00
2018-09-19T08:04:34.823Z,37152.00
2018-09-19T08:05:34.811Z,37216.00
2018-09-19T08:06:34.796Z,37312.00
2018-09-19T08:07:34.779Z,38272.00
2018-09-19T08:08:34.766Z,40576.00
2018-09-19T08:09:34.752Z,41504.00
2018-09-19T08:10:34.738Z,42560.00
2018-09-19T08:11:34.722Z,43456.00
2018-09-19T08:12:34.709Z,43296.00
2018-09-19T08:13:34.694Z,44160.00
2018-09-19T08:14:34.681Z,46208.00
2018-09-19T08:15:34.667Z,47168.00
2018-09-19T08:16:34.652Z,45792.00
2018-09-19T08:17:34.638Z,43584.00
2018-09-19T08:18:34.625Z,42336.00
2018-09-19T08:19:34.611Z,43296.00
2018-09-19T08:20:34.597Z,45696.00
2018-09-19T08:21:34.580Z,46944.00
2018-09-19T08:22:34.622Z,47200.00
2018-09-19T08:23:34.553Z,46144.00
2018-09-19T08:24:34.540Z,44064.00
2018-09-19T08:25:34.529Z,37984.00
2018-09-19T08:26:34.511Z,42208.00
2018-09-19T08:27:34.501Z,42560.00
2018-09-19T08:28:34.485Z,45088.00
2018-09-19T08:29:34.469Z,49312.00
2018-09-19T08:30:34.456Z,51264.00
2018-09-19T08:31:34.442Z,51904.00
2018-09-19T08:32:34.428Z,50272.00
2018-09-19T08:33:34.415Z,51968.00
2018-09-19T08:34:34.405Z,50688.00
2018-09-19T08:35:34.388Z,49952.00
2018-09-19T08:36:34.374Z,50016.00
2018-09-19T08:37:34.362Z,54240.00
2018-09-19T08:38:34.348Z,58752.00
2018-09-19T08:39:34.336Z,61280.00
2018-09-19T08:40:34.320Z,59808.00
2018-09-19T08:41:34.306Z,56640.00
2018-09-19T08:42:34.295Z,54848.00
2018-09-19T08:43:34.281Z,54624.00
2018-09-19T08:44:34.265Z,54912.00
2018-09-19T08:45:34.261Z,54048.00
2018-09-19T08:46:34.243Z,52864.00
2018-09-19T08:47:34.224Z,49824.00
2018-09-19T08:48:34.210Z,47744.00
2018-09-19T08:49:34.197Z,47104.00
2018-09-19T08:50:34.256Z,50880.00
2018-09-19T08:51:34.170Z,53280.00
2018-09-19T08:52:34.157Z,52640.00
2018-09-19T08:53:34.142Z,50976.00
2018-09-19T08:54:34.128Z,52448.00
2018-09-19T08:55:34.115Z,48448.00
2018-09-19T08:56:34.099Z,45184.00
2018-09-19T08:57:34.091Z,44640.00
2018-09-19T08:58:34.073Z,47520.00
2018-09-19T08:59:34.057Z,50336.00
2018-09-19T09:00:34.043Z,53440.00
2018-09-19T09:01:34.028Z,53664.00
2018-09-19T09:02:34.015Z,52096.00
2018-09-19T09:03:34.003Z,48512.00
2018-09-19T09:04:33.986Z,45536.00
2018-09-19T09:05:34.061Z,47232.00
2018-09-19T09:06:33.960Z,49312.00
2018-09-19T09:07:33.951Z,51808.00
2018-09-19T09:08:33.931Z,54912.00
2018-09-19T09:09:33.920Z,57088.00
2018-09-19T09:10:33.936Z,57440.00
2018-09-19T09:11:33.889Z,59008.00
2018-09-19T09:12:33.937Z,58400.00
2018-09-19T09:13:33.865Z,58368.00
2018-09-19T09:14:33.887Z,56640.00
2018-09-19T09:15:33.835Z,58464.00
2018-09-19T09:16:33.821Z,60992.00
2018-09-19T09:17:33.808Z,61536.00
2018-09-19T09:18:33.797Z,63456.00
2018-09-19T09:19:33.784Z,62976.00
2018-09-19T09:20:33.773Z,63840.00
2018-09-19T09:21:33.755Z,63648.00
2018-09-19T09:22:33.740Z,63232.00
2018-09-19T09:23:33.730Z,67712.00
2018-09-19T09:24:33.717Z,67680.00
2018-09-19T09:25:33.702Z,64032.00
2018-09-19T09:26:33.689Z,61408.00
2018-09-19T09:27:33.679Z,64576.00
2018-09-19T09:28:33.662Z,67776.00
2018-09-19T09:29:33.648Z,71072.00
2018-09-19T09:30:33.635Z,73536.00
2018-09-19T09:31:33.623Z,74656.00
2018-09-19T09:32:33.614Z,73536.00
2018-09-19T09:33:33.597Z,70144.00
2018-09-19T09:34:33.591Z,66752.00
2018-09-19T09:35:33.575Z,66144.00
2018-09-19T09:36:33.560Z,66528.00
2018-09-19T09:37:33.546Z,65856.00
2018-09-19T09:38:33.532Z,64192.00
2018-09-19T09:39:33.524Z,65024.00
2018-09-19T09:40:33.617Z,66400.00
2018-09-19T09:41:33.499Z,68928.00
2018-09-19T09:42:33.486Z,70368.00
2018-09-19T09:43:33.481Z,71584.00
2018-09-19T09:44:33.454Z,72032.00
2018-09-19T09:45:33.443Z,71424.00
2018-09-19T09:46:33.429Z,70272.00
2018-09-19T09:47:33.418Z,68672.00
2018-09-19T09:48:33.448Z,68576.00
2018-09-19T09:49:33.395Z,70144.00
2018-09-19T09:50:33.380Z,69568.00
2018-09-19T09:51:33.370Z,70336.00
2018-09-19T09:52:33.358Z,68416.00
2018-09-19T09:54:33.332Z,67968.00
2018-09-19T09:55:33.317Z,67616.00
2018-09-19T09:56:33.301Z,65888.00
2018-09-19T09:57:33.291Z,66272.00
2018-09-19T09:58:33.276Z,68704.00
2018-09-19T09:59:33.264Z,71520.00
2018-09-19T10:00:33.265Z,71872.00
2018-09-19T10:01:33.241Z,71520.00
2018-09-19T10:02:33.227Z,71424.00
2018-09-19T10:03:33.215Z,72608.00
2018-09-19T10:04:33.198Z,74240.00
2018-09-19T10:05:33.187Z,75552.00
2018-09-19T10:06:33.202Z,77984.00
2018-09-19T10:07:33.163Z,78368.00
2018-09-19T10:08:33.148Z,79520.00
2018-09-19T10:09:33.137Z,80032.00
2018-09-19T10:10:33.124Z,80672.00
2018-09-19T10:11:33.110Z,80736.00
2018-09-19T10:12:33.096Z,83776.00
2018-09-19T10:13:33.093Z,85984.00
2018-09-19T10:14:33.471Z,87744.00
2018-09-19T10:15:33.058Z,87744.00
2018-09-19T10:16:33.045Z,86272.00
2018-09-19T10:17:33.033Z,84480.00
2018-09-19T10:18:33.018Z,81760.00
2018-09-19T10:19:33.008Z,81152.00
2018-09-19T10:20:32.992Z,80544.00
2018-09-19T10:21:32.981Z,79520.00
2018-09-19T10:22:32.996Z,78816.00
2018-09-19T10:23:32.953Z,77760.00
2018-09-19T10:24:32.940Z,76480.00
2018-09-19T10:25:32.930Z,74624.00
2018-09-19T10:26:32.917Z,72192.00
2018-09-19T10:27:32.901Z,69952.00
2018-09-19T10:28:32.887Z,67968.00
2018-09-19T10:29:32.924Z,68544.00
2018-09-19T10:30:32.868Z,68448.00
2018-09-19T10:31:32.852Z,65600.00
2018-09-19T10:32:32.837Z,62528.00
2018-09-19T10:33:32.824Z,58656.00
2018-09-19T10:34:32.812Z,57216.00
2018-09-19T10:35:32.847Z,56256.00
2018-09-19T10:36:32.786Z,55872.00
2018-09-19T10:37:32.775Z,56064.00
2018-09-19T10:38:32.762Z,54880.00
2018-09-19T10:39:32.750Z,54976.00
2018-09-19T10:40:32.736Z,56576.00
2018-09-19T10:41:32.726Z,58784.00
2018-09-19T10:42:32.721Z,58560.00
2018-09-19T10:43:32.700Z,56896.00
2018-09-19T10:44:32.687Z,55936.00
2018-09-19T10:45:32.674Z,54400.00
2018-09-19T10:46:32.660Z,53376.00
2018-09-19T10:47:32.649Z,52736.00
2018-09-19T10:48:32.636Z,51808.00
2018-09-19T10:49:32.682Z,51680.00
2018-09-19T10:50:32.612Z,50848.00
2018-09-19T10:51:32.601Z,53568.00
2018-09-19T10:52:32.586Z,55200.00
2018-09-19T10:53:32.574Z,54560.00
2018-09-19T10:54:32.562Z,51360.00
2018-09-19T10:55:32.549Z,48416.00
2018-09-19T10:56:32.536Z,47840.00
2018-09-19T10:57:32.522Z,48864.00
2018-09-19T10:58:32.512Z,50208.00
2018-09-19T10:59:32.499Z,50272.00
2018-09-19T11:00:32.490Z,48672.00
2018-09-19T11:01:32.474Z,47168.00
2018-09-19T11:02:32.461Z,46560.00
2018-09-19T11:03:32.447Z,47968.00
2018-09-19T11:04:32.435Z,50752.00
2018-09-19T11:05:32.422Z,51552.00
2018-09-19T11:06:32.409Z,51744.00
2018-09-19T11:07:32.399Z,50784.00
2018-09-19T11:08:32.382Z,48800.00
2018-09-19T11:09:32.371Z,50176.00
2018-09-19T11:10:32.359Z,51392.00
2018-09-19T11:11:32.349Z,53856.00
2018-09-19T11:12:32.333Z,55296.00
2018-09-19T11:13:32.321Z,54816.00
2018-09-19T11:14:32.308Z,55136.00
2018-09-19T11:15:32.296Z,58080.00
2018-09-19T11:16:32.287Z,59808.00
2018-09-19T11:17:32.270Z,62976.00
2018-09-19T11:18:32.257Z,64288.00
2018-09-19T11:19:32.245Z,62944.00
2018-09-19T11:20:32.232Z,60320.00
2018-09-19T11:21:32.219Z,57920.00
2018-09-19T11:22:32.207Z,58432.00
2018-09-19T11:23:32.195Z,61280.00
2018-09-19T11:24:32.182Z,61632.00
2018-09-19T11:25:32.168Z,64960.00
2018-09-19T11:26:32.210Z,65152.00
2018-09-19T11:27:32.141Z,64096.00
2018-09-19T11:28:32.131Z,63872.00
2018-09-19T11:29:32.116Z,63328.00
2018-09-19T11:30:32.103Z,62176.00
2018-09-19T11:31:32.091Z,57088.00
2018-09-19T11:32:32.078Z,60896.00
2018-09-19T11:33:32.101Z,22144.00
2018-09-19T11:34:32.048Z,62464.00
2018-09-19T11:35:32.036Z,65888.00
2018-09-19T11:36:32.021Z,68448.00
2018-09-19T11:37:32.008Z,66624.00
2018-09-19T11:38:31.997Z,64288.00
2018-09-19T11:39:31.982Z,63648.00
2018-09-19T11:40:31.969Z,61088.00
2018-09-19T11:41:31.956Z,57792.00
2018-09-19T11:42:31.941Z,54784.00
2018-09-19T11:43:31.933Z,53440.00
2018-09-19T11:44:31.917Z,55008.00
2018-09-19T11:45:31.903Z,56608.00
2018-09-19T11:46:31.889Z,57792.00
2018-09-19T11:47:31.875Z,54976.00
2018-09-19T11:48:31.911Z,54336.00
2018-09-19T11:49:31.849Z,52160.00
2018-09-19T11:50:31.837Z,51168.00
2018-09-19T11:51:31.823Z,51200.00
2018-09-19T11:52:31.810Z,54208.00
2018-09-19T11:53:31.796Z,54112.00
2018-09-19T11:54:31.782Z,53856.00
2018-09-19T11:55:31.770Z,50944.00
2018-09-19T11:56:31.756Z,48160.00
2018-09-19T11:57:31.743Z,49728.00
2018-09-19T11:58:31.729Z,52288.00
2018-09-19T11:59:31.717Z,55168.00
2018-09-19T12:00:31.702Z,56544.00
2018-09-19T12:01:31.689Z,59872.00
2018-09-19T12:02:31.675Z,62048.00
2018-09-19T12:03:31.662Z,63648.00
2018-09-19T12:04:31.650Z,63008.00
2018-09-19T12:05:31.636Z,60128.00
2018-09-19T12:06:31.622Z,57280.00
2018-09-19T12:07:31.615Z,58176.00
2018-09-19T12:08:31.595Z,58048.00
2018-09-19T12:09:31.583Z,55200.00
2018-09-19T12:10:31.570Z,53280.00
2018-09-19T12:11:31.558Z,52992.00
2018-09-19T12:12:31.546Z,53728.00
2018-09-19T12:13:31.529Z,56544.00
2018-09-19T12:14:31.518Z,54816.00
2018-09-19T12:15:31.505Z,52352.00
2018-09-19T12:16:31.491Z,51616.00
2018-09-19T12:17:31.479Z,53856.00
2018-09-19T12:18:31.464Z,55680.00
2018-09-19T12:19:31.462Z,56800.00
2018-09-19T12:20:31.439Z,56736.00
2018-09-19T12:21:31.460Z,54848.00
2018-09-19T12:22:31.413Z,55616.00